Time;durP1;ratioP1;P1;durP2;ratioP2;P2;SDS_P1;SDS_P2;PMS_P1;PMS_P2;Temp;Humidity;BMP_temperature;BMP_pressure;BME280_temperature;BME280_humidity;BME280_pressure;Samples;Min_cycle;Max_cycle;Signal;HPM_P1;HPM_P2
2021/01/01 00:00:15;;;;;;;12.30;7.90;;;3.20;78.00;;;;;;4957639;28;20109;-84
2021/01/01 00:02:41;;;;;;;13.63;7.70;;;3.20;78.10;;;;;;4975039;28;20110;-74
2021/01/01 00:05:08;;;;;;;12.05;6.85;;;3.20;78.20;;;;;;4974950;28;20019;-74
2021/01/01 00:07:33;;;;;;;11.18;7.22;;;3.10;78.30;;;;;;4974444;28;20109;-75
2021/01/01 00:10:00;;;;;;;12.52;7.63;;;3.10;78.50;;;;;;4974829;28;20023;-74
2021/01/01 00:12:25;;;;;;;12.70;7.82;;;3.20;78.50;;;;;;4974759;28;20118;-74
2021/01/01 00:14:51;;;;;;;11.15;6.38;;;3.20;78.60;;;;;;4974809;28;20058;-75
2021/01/01 00:17:17;;;;;;;16.40;10.20;;;3.20;78.50;;;;;;4973501;28;20427;-75
2021/01/01 00:19:42;;;;;;;13.18;7.50;;;3.10;78.60;;;;;;4974765;28;20030;-75
2021/01/01 00:22:10;;;;;;;12.50;6.95;;;3.10;78.60;;;;;;4974548;28;20113;-74
2021/01/01 00:24:35;;;;;;;10.70;6.22;;;3.00;78.80;;;;;;4974536;28;20101;-74
2021/01/01 00:27:01;;;;;;;10.38;7.22;;;3.00;79.20;;;;;;4974632;28;20077;-74
2021/01/01 00:29:27;;;;;;;15.77;9.40;;;3.00;79.50;;;;;;4974655;28;20038;-74
2021/01/01 00:31:52;;;;;;;12.40;7.28;;;2.90;79.80;;;;;;4974556;28;20484;-75
2021/01/01 00:34:18;;;;;;;15.55;9.52;;;2.90;80.00;;;;;;4974389;28;20034;-75
2021/01/01 00:36:43;;;;;;;18.25;9.48;;;3.00;80.10;;;;;;4974855;28;20031;-75
2021/01/01 00:39:09;;;;;;;12.98;8.32;;;2.90;80.10;;;;;;4974475;28;20147;-75
2021/01/01 00:41:34;;;;;;;23.85;12.60;;;2.90;80.30;;;;;;4974287;28;20672;-75
2021/01/01 00:44:01;;;;;;;19.48;10.70;;;2.90;80.40;;;;;;4957222;28;20031;-76
2021/01/01 00:46:27;;;;;;;49.78;22.10;;;3.00;80.50;;;;;;4974335;28;20150;-74
2021/01/01 00:48:53;;;;;;;14.50;7.97;;;2.90;80.60;;;;;;4974383;28;20034;-74
2021/01/01 00:51:30;;;;;;;13.27;7.45;;;2.90;80.70;;;;;;4974214;28;20085;-73
2021/01/01 00:53:56;;;;;;;15.23;8.02;;;2.90;80.80;;;;;;4974203;28;20031;-74
2021/01/01 00:56:23;;;;;;;11.95;7.57;;;3.00;80.70;;;;;;4974702;28;20057;-73
2021/01/01 00:58:50;;;;;;;11.57;7.35;;;3.00;80.50;;;;;;4978281;28;20059;-73
2021/01/01 01:01:22;;;;;;;9.75;6.22;;;3.00;80.40;;;;;;4978128;28;20065;-73
2021/01/01 01:03:47;;;;;;;11.98;6.75;;;3.00;80.50;;;;;;4978091;28;20018;-73
2021/01/01 01:06:13;;;;;;;10.00;6.60;;;3.00;80.60;;;;;;4977947;28;20525;-73
2021/01/01 01:08:39;;;;;;;8.85;5.35;;;3.00;80.70;;;;;;4978029;28;20026;-73
2021/01/01 01:11:04;;;;;;;9.25;6.45;;;3.00;80.80;;;;;;4977956;28;20023;-81
2021/01/01 01:13:30;;;;;;;13.57;8.38;;;3.10;80.90;;;;;;4977740;28;20027;-73
2021/01/01 01:15:55;;;;;;;12.57;7.75;;;3.10;80.80;;;;;;4977882;28;20038;-73
2021/01/01 01:18:21;;;;;;;29.40;14.10;;;3.10;80.80;;;;;;4977821;28;20113;-72
2021/01/01 01:20:46;;;;;;;32.45;14.77;;;3.10;80.70;;;;;;4977681;28;20019;-72
2021/01/01 01:23:12;;;;;;;25.90;12.50;;;3.10;80.70;;;;;;4977752;28;20041;-72
2021/01/01 01:25:37;;;;;;;18.80;9.45;;;3.20;80.70;;;;;;4977778;28;20475;-72
2021/01/01 01:28:03;;;;;;;13.20;8.18;;;3.20;80.70;;;;;;4977764;28;20023;-73
2021/01/01 01:30:29;;;;;;;13.27;7.57;;;3.20;80.70;;;;;;4977566;28;20385;-73
2021/01/01 01:32:54;;;;;;;14.00;7.82;;;3.20;80.70;;;;;;4977584;28;20027;-73
2021/01/01 01:35:20;;;;;;;15.32;8.60;;;3.20;80.80;;;;;;4977491;28;20045;-73
2021/01/01 01:37:46;;;;;;;10.82;6.93;;;3.10;81.00;;;;;;4977288;28;20039;-74
2021/01/01 01:40:12;;;;;;;13.40;7.75;;;3.10;81.10;;;;;;4978839;28;20029;-73
2021/01/01 01:42:37;;;;;;;20.48;11.20;;;3.10;82.00;;;;;;4988937;28;20049;-73
2021/01/01 01:45:08;;;;;;;15.73;9.13;;;3.00;81.40;;;;;;4990714;28;20038;-73
2021/01/01 01:47:34;;;;;;;19.20;10.40;;;3.00;81.70;;;;;;4961506;28;20114;-73
2021/01/01 01:50:00;;;;;;;17.48;8.68;;;3.00;81.80;;;;;;4976093;28;20173;-73
2021/01/01 01:52:26;;;;;;;13.73;7.90;;;3.00;82.10;;;;;;4977379;28;20023;-73
2021/01/01 01:54:54;;;;;;;13.65;8.48;;;2.90;82.20;;;;;;4975893;28;20050;-73
2021/01/01 01:57:24;;;;;;;12.82;7.55;;;3.00;82.20;;;;;;4977050;28;20038;-73
2021/01/01 01:59:54;;;;;;;8.93;5.57;;;3.00;82.10;;;;;;4977297;28;20094;-73
2021/01/01 02:02:21;;;;;;;10.10;6.82;;;3.00;82.20;;;;;;4977145;28;20031;-73
2021/01/01 02:04:47;;;;;;;11.60;6.53;;;3.00;82.20;;;;;;4977070;28;20034;-73
2021/01/01 02:07:13;;;;;;;9.55;6.22;;;3.00;82.20;;;;;;4976874;28;20126;-73
2021/01/01 02:09:39;;;;;;;11.48;6.05;;;3.00;82.20;;;;;;4977275;28;20102;-74
2021/01/01 02:12:06;;;;;;;11.15;6.70;;;3.10;82.30;;;;;;4977052;28;20031;-75
2021/01/01 02:14:33;;;;;;;12.13;7.10;;;3.10;82.20;;;;;;4976920;28;20101;-75
2021/01/01 02:16:58;;;;;;;12.18;7.65;;;3.10;82.20;;;;;;4976769;28;20038;-74
2021/01/01 02:19:24;;;;;;;14.02;8.32;;;3.10;82.20;;;;;;4976931;28;20468;-75
2021/01/01 02:21:50;;;;;;;13.50;7.40;;;3.10;82.20;;;;;;4977200;28;20049;-75
2021/01/01 02:24:15;;;;;;;13.25;7.70;;;3.10;82.40;;;;;;4976705;28;20113;-76
2021/01/01 02:26:41;;;;;;;13.13;7.25;;;3.10;82.80;;;;;;4978039;28;20096;-75
2021/01/01 02:29:07;;;;;;;12.70;7.20;;;3.10;82.50;;;;;;4982611;28;20093;-74
2021/01/01 02:31:32;;;;;;;12.27;6.13;;;3.20;82.50;;;;;;4988332;28;20034;-73
2021/01/01 02:33:58;;;;;;;10.27;6.38;;;3.10;82.40;;;;;;4985651;28;20062;-75
2021/01/01 02:36:23;;;;;;;13.02;7.05;;;3.20;82.40;;;;;;4984679;28;20485;-74
2021/01/01 02:38:49;;;;;;;11.15;7.00;;;3.20;82.40;;;;;;4979593;28;20037;-75
2021/01/01 02:41:15;;;;;;;12.82;7.15;;;3.20;82.40;;;;;;4976477;28;20027;-74
2021/01/01 02:43:40;;;;;;;12.48;7.25;;;3.20;82.40;;;;;;4959090;28;20045;-75
2021/01/01 02:46:06;;;;;;;15.52;7.55;;;3.20;82.40;;;;;;4976398;28;20030;-73
2021/01/01 02:48:31;;;;;;;16.05;8.15;;;3.20;82.50;;;;;;4976247;28;20406;-74
2021/01/01 02:50:57;;;;;;;12.98;7.40;;;3.20;82.50;;;;;;4976118;28;20085;-74
2021/01/01 02:53:22;;;;;;;15.95;8.25;;;3.20;82.60;;;;;;4974720;28;20027;-75
2021/01/01 02:55:49;;;;;;;17.88;8.98;;;3.20;82.70;;;;;;4976152;28;20498;-72
2021/01/01 02:58:15;;;;;;;19.65;9.05;;;3.20;82.70;;;;;;4975962;28;20031;-73
2021/01/01 03:00:41;;;;;;;22.88;9.55;;;3.10;82.80;;;;;;4975983;28;20026;-73
2021/01/01 03:03:07;;;;;;;23.13;10.57;;;3.10;82.90;;;;;;4975947;28;20049;-73
2021/01/01 03:05:34;;;;;;;18.05;8.75;;;3.10;82.90;;;;;;4975369;28;20476;-74
2021/01/01 03:08:00;;;;;;;17.00;8.00;;;3.10;82.90;;;;;;4975603;28;20132;-74
2021/01/01 03:10:25;;;;;;;17.42;8.45;;;3.10;83.00;;;;;;4974853;28;20058;-74
2021/01/01 03:12:51;;;;;;;14.23;7.38;;;3.10;83.20;;;;;;4975132;28;20085;-73
2021/01/01 03:15:17;;;;;;;15.88;9.20;;;3.10;83.20;;;;;;4975144;28;20034;-76
2021/01/01 03:17:43;;;;;;;17.67;10.07;;;3.00;83.20;;;;;;4975259;28;20035;-73
2021/01/01 03:20:09;;;;;;;17.05;9.43;;;3.00;83.30;;;;;;4974852;28;20102;-73
2021/01/01 03:22:36;;;;;;;13.73;8.70;;;3.00;83.50;;;;;;4975315;28;20023;-73
2021/01/01 03:25:03;;;;;;;15.70;9.02;;;3.00;83.50;;;;;;4975144;28;20069;-73
2021/01/01 03:27:29;;;;;;;15.48;8.57;;;3.10;83.70;;;;;;4975232;28;20070;-73
2021/01/01 03:29:54;;;;;;;14.55;9.00;;;3.10;83.70;;;;;;4975170;28;20096;-73
2021/01/01 03:32:20;;;;;;;16.60;9.38;;;3.10;83.70;;;;;;4975270;28;20027;-73
2021/01/01 03:34:45;;;;;;;14.93;8.40;;;3.00;83.60;;;;;;4975311;28;20030;-73
2021/01/01 03:37:11;;;;;;;13.98;7.40;;;3.00;83.60;;;;;;4975380;28;20061;-73
2021/01/01 03:39:37;;;;;;;14.70;7.95;;;3.00;83.60;;;;;;4975328;28;20092;-73
2021/01/01 03:42:02;;;;;;;12.65;7.18;;;3.10;83.80;;;;;;4975251;28;20031;-72
2021/01/01 03:44:28;;;;;;;12.93;8.27;;;3.10;83.90;;;;;;4975215;28;20031;-73
2021/01/01 03:46:53;;;;;;;12.07;7.50;;;3.10;84.00;;;;;;4975275;28;20011;-73
2021/01/01 03:49:20;;;;;;;12.13;7.18;;;3.10;84.00;;;;;;4975194;28;20035;-73
2021/01/01 03:51:45;;;;;;;11.02;6.60;;;3.10;84.10;;;;;;4975112;28;20019;-73
2021/01/01 03:54:10;;;;;;;13.20;7.90;;;3.00;84.00;;;;;;4974942;28;20387;-73
2021/01/01 03:56:36;;;;;;;10.18;6.80;;;3.10;84.00;;;;;;4974853;28;20026;-73
2021/01/01 03:59:02;;;;;;;10.70;6.57;;;3.10;84.00;;;;;;4975018;28;20042;-73
2021/01/01 04:01:28;;;;;;;9.80;6.30;;;3.10;83.90;;;;;;4975760;28;20114;-73
2021/01/01 04:03:54;;;;;;;12.60;6.95;;;3.10;83.90;;;;;;4976576;28;20059;-73
2021/01/01 04:06:19;;;;;;;12.77;7.28;;;3.10;83.80;;;;;;4975300;28;20043;-73
2021/01/01 04:08:45;;;;;;;12.20;7.05;;;3.10;83.80;;;;;;4975156;28;20019;-73
2021/01/01 04:11:10;;;;;;;12.65;7.40;;;3.10;83.90;;;;;;4981087;28;20023;-73
2021/01/01 04:13:36;;;;;;;13.35;7.75;;;3.10;83.90;;;;;;4986025;28;20078;-74
2021/01/01 04:16:02;;;;;;;16.17;9.95;;;3.10;84.00;;;;;;4990346;28;20030;-73
2021/01/01 04:18:28;;;;;;;20.05;9.80;;;3.00;83.90;;;;;;4978702;28;20087;-72
2021/01/01 04:20:53;;;;;;;14.63;8.77;;;2.90;84.20;;;;;;4975047;28;20431;-72
2021/01/01 04:23:19;;;;;;;16.42;8.85;;;2.90;84.40;;;;;;4974679;28;20023;-72
2021/01/01 04:25:47;;;;;;;16.58;9.48;;;2.90;84.40;;;;;;4974662;28;20054;-73
2021/01/01 04:28:13;;;;;;;18.48;10.32;;;3.00;84.50;;;;;;4975026;28;20023;-73
2021/01/01 04:30:38;;;;;;;15.32;9.15;;;2.90;84.50;;;;;;4974042;28;20037;-73
2021/01/01 04:33:04;;;;;;;16.90;9.50;;;3.00;84.50;;;;;;4974183;28;20023;-74
2021/01/01 04:35:30;;;;;;;15.02;9.02;;;3.00;84.50;;;;;;4974500;28;20027;-74
2021/01/01 04:37:55;;;;;;;12.95;8.48;;;3.00;84.30;;;;;;4974408;28;20081;-74
2021/01/01 04:40:21;;;;;;;13.85;9.02;;;3.00;84.20;;;;;;4974361;28;20056;-73
2021/01/01 04:42:47;;;;;;;15.68;9.73;;;3.00;84.20;;;;;;4974366;28;20081;-73
2021/01/01 04:45:15;;;;;;;15.35;9.35;;;3.00;84.20;;;;;;4974421;28;20026;-74
2021/01/01 04:47:41;;;;;;;15.73;9.32;;;3.00;84.20;;;;;;4974166;28;20029;-73
2021/01/01 04:50:06;;;;;;;14.75;9.10;;;3.00;84.30;;;;;;4974246;28;20023;-73
2021/01/01 04:52:33;;;;;;;13.95;9.25;;;3.00;84.20;;;;;;4974138;28;20031;-73
2021/01/01 04:55:00;;;;;;;15.65;8.88;;;3.00;84.30;;;;;;4974209;28;20038;-74
2021/01/01 04:57:26;;;;;;;16.75;9.80;;;3.10;84.30;;;;;;4974460;28;20042;-75
2021/01/01 04:59:52;;;;;;;14.57;9.18;;;3.00;84.10;;;;;;4976110;28;20406;-74
2021/01/01 05:02:18;;;;;;;15.65;9.70;;;3.10;84.30;;;;;;4978172;28;20023;-74
2021/01/01 05:04:47;;;;;;;14.70;9.50;;;3.10;84.20;;;;;;4974634;28;20105;-74
2021/01/01 05:07:20;;;;;;;17.17;10.32;;;3.10;84.20;;;;;;4975093;28;20071;-73
2021/01/01 05:09:47;;;;;;;16.13;9.93;;;3.10;84.20;;;;;;4974231;28;20035;-74
2021/01/01 05:12:14;;;;;;;18.42;10.70;;;3.10;84.10;;;;;;4956869;28;20030;-74
2021/01/01 05:14:40;;;;;;;15.35;9.68;;;3.10;84.10;;;;;;4974158;28;20058;-73
2021/01/01 05:17:06;;;;;;;14.52;9.07;;;3.10;84.10;;;;;;4974085;28;20065;-73
2021/01/01 05:19:37;;;;;;;20.00;11.35;;;3.10;84.00;;;;;;4973912;28;20437;-73
2021/01/01 05:22:04;;;;;;;15.25;9.98;;;3.10;83.90;;;;;;4974085;28;20035;-73
2021/01/01 05:24:36;;;;;;;19.92;11.68;;;3.00;83.80;;;;;;4956549;28;20083;-74
2021/01/01 05:27:12;;;;;;;16.00;10.32;;;3.00;83.90;;;;;;4974094;28;20498;-73
2021/01/01 05:29:54;;;;;;;17.63;10.70;;;3.00;84.10;;;;;;4973994;28;20027;-73
2021/01/01 05:32:21;;;;;;;17.65;10.70;;;2.90;84.20;;;;;;4974090;28;20034;-73
2021/01/01 05:34:47;;;;;;;15.75;9.95;;;2.90;84.40;;;;;;4973905;28;20034;-74
2021/01/01 05:37:28;;;;;;;16.02;10.48;;;3.00;84.70;;;;;;4973763;28;20039;-74
2021/01/01 05:40:08;;;;;;;15.07;9.82;;;3.00;84.70;;;;;;4973855;28;20058;-73
2021/01/01 05:42:37;;;;;;;16.58;9.45;;;3.00;84.70;;;;;;4974572;28;20027;-74
2021/01/01 05:45:17;;;;;;;16.30;9.80;;;3.10;84.60;;;;;;4977353;28;20042;-73
2021/01/01 05:48:04;;;;;;;16.00;9.48;;;3.10;84.50;;;;;;4977412;28;20103;-73
2021/01/01 05:50:31;;;;;;;17.75;10.38;;;3.10;84.50;;;;;;4977275;28;20029;-73
2021/01/01 05:53:13;;;;;;;16.15;9.80;;;3.10;84.50;;;;;;4977168;28;20042;-73
2021/01/01 05:55:39;;;;;;;17.65;11.48;;;3.10;84.30;;;;;;4977296;28;20022;-73
2021/01/01 05:58:18;;;;;;;19.25;10.48;;;3.10;84.40;;;;;;4977191;28;20045;-73
2021/01/01 06:00:45;;;;;;;17.58;10.68;;;3.10;84.50;;;;;;4977257;28;20022;-73
2021/01/01 06:03:19;;;;;;;18.17;11.38;;;3.10;84.60;;;;;;4977187;28;20029;-73
2021/01/01 06:05:48;;;;;;;16.02;9.52;;;3.10;84.60;;;;;;4976896;28;20057;-73
2021/01/01 06:08:14;;;;;;;16.80;9.85;;;3.10;84.60;;;;;;4959693;28;20472;-73
2021/01/01 06:10:49;;;;;;;17.95;10.63;;;3.10;84.70;;;;;;4976967;28;20432;-73
2021/01/01 06:13:18;;;;;;;20.55;10.98;;;3.10;84.80;;;;;;4976938;28;20031;-74
2021/01/01 06:15:53;;;;;;;19.05;11.90;;;3.10;84.70;;;;;;4976479;28;20031;-74
2021/01/01 06:18:25;;;;;;;19.63;11.23;;;3.00;84.60;;;;;;4976540;28;20047;-74
2021/01/01 06:20:56;;;;;;;19.15;11.02;;;3.00;84.70;;;;;;4976790;28;20023;-73
2021/01/01 06:23:33;;;;;;;19.90;10.77;;;3.00;84.80;;;;;;4976730;28;20030;-73
2021/01/01 06:26:04;;;;;;;19.63;11.85;;;3.00;84.80;;;;;;4976845;28;20034;-74
2021/01/01 06:28:31;;;;;;;20.92;12.45;;;3.00;84.90;;;;;;4976620;28;20027;-73
2021/01/01 06:30:58;;;;;;;17.10;11.20;;;3.00;84.80;;;;;;4976706;28;20034;-73
2021/01/01 06:33:24;;;;;;;20.55;11.38;;;3.00;84.90;;;;;;4976603;28;20039;-73
2021/01/01 06:35:51;;;;;;;20.45;11.18;;;2.90;85.00;;;;;;4976625;28;20110;-73
2021/01/01 06:38:37;;;;;;;17.27;11.15;;;3.00;85.10;;;;;;4976446;28;20027;-73
2021/01/01 06:41:04;;;;;;;20.13;11.95;;;3.00;85.20;;;;;;4976603;28;20027;-73
2021/01/01 06:43:51;;;;;;;19.85;11.68;;;3.00;85.30;;;;;;4976891;28;20387;-73
2021/01/01 06:46:40;;;;;;;17.13;10.43;;;2.90;85.10;;;;;;4990106;28;20015;-73
2021/01/01 06:49:07;;;;;;;14.98;9.52;;;2.90;85.10;;;;;;4982734;28;20033;-72
2021/01/01 06:51:33;;;;;;;17.83;10.23;;;2.90;85.00;;;;;;4976658;28;20110;-73
2021/01/01 06:54:14;;;;;;;12.30;8.45;;;2.80;84.70;;;;;;4975526;28;20137;-72
2021/01/01 06:56:44;;;;;;;14.38;8.57;;;2.80;84.60;;;;;;4976170;28;20383;-76
2021/01/01 06:59:13;;;;;;;11.30;7.75;;;2.80;84.60;;;;;;4976227;28;20133;-72
2021/01/01 07:01:45;;;;;;;12.40;8.27;;;2.80;84.70;;;;;;4976068;28;20498;-72
2021/01/01 07:04:12;;;;;;;12.57;8.30;;;2.90;84.70;;;;;;4974800;28;20510;-73
2021/01/01 07:06:42;;;;;;;10.00;7.22;;;2.90;84.60;;;;;;4975990;28;20038;-73
2021/01/01 07:09:09;;;;;;;13.32;7.97;;;2.90;84.50;;;;;;4975012;28;20037;-73
2021/01/01 07:11:36;;;;;;;10.27;7.30;;;2.90;84.40;;;;;;4975835;28;20486;-74
2021/01/01 07:14:10;;;;;;;11.60;7.60;;;3.00;84.30;;;;;;4975901;28;20497;-73
2021/01/01 07:16:45;;;;;;;11.40;7.70;;;2.90;84.10;;;;;;4975552;28;20487;-80
2021/01/01 07:19:11;;;;;;;;;;;3.00;84.00;;;;;;4976066;28;20391;-73
2021/01/01 07:21:38;;;;;;;;;;;3.00;83.60;;;;;;4975959;28;19906;-74
2021/01/01 07:24:04;;;;;;;11.13;6.80;;;3.00;83.20;;;;;;4975436;28;19906;-73
2021/01/01 07:26:30;;;;;;;19.73;9.90;;;3.00;82.70;;;;;;4975541;28;20057;-72
2021/01/01 07:28:58;;;;;;;18.98;9.45;;;3.00;82.50;;;;;;4975394;28;20387;-73
2021/01/01 07:31:25;;;;;;;15.05;7.55;;;3.00;82.20;;;;;;4975395;28;20022;-73
2021/01/01 07:33:50;;;;;;;7.78;4.97;;;3.00;82.00;;;;;;4975240;28;20023;-73
2021/01/01 07:36:17;;;;;;;8.10;4.95;;;3.00;81.70;;;;;;4975233;28;20019;-73
2021/01/01 07:38:47;;;;;;;15.88;7.80;;;2.90;81.60;;;;;;4974938;28;20574;-73
2021/01/01 07:41:15;;;;;;;18.77;8.90;;;2.90;81.70;;;;;;4975135;28;20106;-73
2021/01/01 07:43:41;;;;;;;11.00;6.13;;;3.00;82.10;;;;;;4975157;28;20046;-74
2021/01/01 07:46:08;;;;;;;9.95;5.72;;;2.90;82.10;;;;;;4975170;28;20019;-73
2021/01/01 07:48:35;;;;;;;12.30;6.35;;;2.90;82.10;;;;;;4973460;28;20114;-73
2021/01/01 07:51:05;;;;;;;13.48;6.70;;;2.90;82.10;;;;;;4974808;28;20023;-73
2021/01/01 07:53:31;;;;;;;7.03;4.57;;;2.90;82.30;;;;;;4975119;28;20034;-74
2021/01/01 07:56:02;;;;;;;5.47;3.72;;;2.90;82.40;;;;;;4975007;28;20022;-73
2021/01/01 07:58:29;;;;;;;5.53;4.03;;;2.90;82.40;;;;;;4974638;28;20125;-73
2021/01/01 08:01:01;;;;;;;6.10;4.18;;;3.00;82.50;;;;;;4974654;28;20022;-74
2021/01/01 08:03:26;;;;;;;7.30;4.20;;;3.00;82.40;;;;;;4974471;28;20050;-73
2021/01/01 08:05:53;;;;;;;6.57;3.95;;;2.90;82.60;;;;;;4974349;28;20105;-73
2021/01/01 08:08:22;;;;;;;8.60;4.78;;;2.90;82.80;;;;;;4974658;28;20419;-73
2021/01/01 08:10:49;;;;;;;5.72;4.43;;;2.90;83.00;;;;;;4974983;28;20246;-84
2021/01/01 08:13:19;;;;;;;7.07;4.68;;;2.90;83.20;;;;;;4957950;28;20140;-73
2021/01/01 08:15:45;;;;;;;5.40;4.07;;;2.90;83.20;;;;;;4974659;28;20027;-74
2021/01/01 08:18:18;;;;;;;4.30;3.25;;;2.90;83.10;;;;;;4974577;28;20034;-73
2021/01/01 08:20:47;;;;;;;4.72;3.50;;;2.90;83.20;;;;;;4974705;28;20029;-72
2021/01/01 08:23:15;;;;;;;4.03;2.90;;;2.80;83.20;;;;;;4974646;28;20505;-72
2021/01/01 08:25:42;;;;;;;3.63;2.92;;;2.80;83.40;;;;;;4974542;28;20035;-73
2021/01/01 08:28:08;;;;;;;3.42;2.75;;;2.80;83.30;;;;;;4974631;28;20102;-74
2021/01/01 08:30:37;;;;;;;2.78;2.25;;;2.80;83.30;;;;;;4974319;28;20055;-73
2021/01/01 08:33:05;;;;;;;4.35;2.85;;;2.70;84.10;;;;;;4974271;28;20061;-73
2021/01/01 08:35:31;;;;;;;11.10;2.80;;;2.90;85.40;;;;;;4974266;28;20550;-74
2021/01/01 08:37:57;;;;;;;11.13;4.32;;;3.00;85.20;;;;;;4974425;28;20046;-75
2021/01/01 08:40:23;;;;;;;6.63;3.17;;;3.60;92.70;;;;;;4974542;28;20022;-77
2021/01/01 08:42:54;;;;;;;5.32;2.72;;;3.90;91.10;;;;;;4975281;28;20042;-77
2021/01/01 08:45:20;;;;;;;4.70;2.60;;;4.20;87.60;;;;;;4974375;28;20464;-77
2021/01/01 08:47:51;;;;;;;3.00;2.00;;;4.60;84.70;;;;;;4974977;28;20088;-78
2021/01/01 08:50:27;;;;;;;4.18;2.00;;;5.00;82.00;;;;;;4974276;28;20391;-77
2021/01/01 08:53:04;;;;;;;2.92;1.95;;;5.50;79.20;;;;;;4974449;28;20030;-78
2021/01/01 08:55:30;;;;;;;2.92;2.13;;;5.50;75.70;;;;;;4974494;28;20031;-78
2021/01/01 08:58:13;;;;;;;3.10;2.22;;;5.50;74.90;;;;;;4976625;28;20034;-77
2021/01/01 09:00:41;;;;;;;2.83;2.20;;;5.60;74.30;;;;;;4976729;28;20036;-77
2021/01/01 09:03:08;;;;;;;3.28;2.22;;;5.60;74.00;;;;;;4975069;28;20030;-77
2021/01/01 09:05:34;;;;;;;4.35;2.58;;;5.90;73.10;;;;;;4974425;28;20023;-76
2021/01/01 09:08:10;;;;;;;3.03;2.13;;;6.00;71.80;;;;;;4974057;28;20133;-77
2021/01/01 09:10:40;;;;;;;4.72;2.33;;;6.00;71.20;;;;;;4974108;28;20116;-78
2021/01/01 09:13:20;;;;;;;3.03;2.20;;;5.80;70.50;;;;;;4974426;28;20558;-77
2021/01/01 09:15:47;;;;;;;2.90;2.22;;;5.60;70.60;;;;;;4974308;28;20155;-76
2021/01/01 09:18:14;;;;;;;3.00;2.20;;;5.60;71.30;;;;;;4987190;28;20031;-79
2021/01/01 09:20:42;;;;;;;3.25;2.25;;;5.40;70.90;;;;;;4979686;28;20019;-81
2021/01/01 09:23:09;;;;;;;2.38;1.58;;;4.90;71.20;;;;;;4978905;28;20105;-84
2021/01/01 09:25:36;;;;;;;3.92;2.67;;;4.70;72.40;;;;;;4981156;28;20023;-88
2021/01/01 09:28:02;;;;;;;4.28;3.25;;;4.40;73.20;;;;;;4984570;28;20034;-88
2021/01/01 09:30:30;;;;;;;6.35;3.75;;;4.40;74.10;;;;;;4984202;28;20035;-89
2021/01/01 09:32:58;;;;;;;3.72;2.50;;;4.20;74.60;;;;;;4999645;28;20026;-80
2021/01/01 09:35:24;;;;;;;2.80;2.25;;;4.10;75.00;;;;;;4984628;28;20019;-78
2021/01/01 09:37:55;;;;;;;3.42;2.35;;;4.10;75.50;;;;;;4984037;28;20037;-88
2021/01/01 09:40:22;;;;;;;3.10;2.35;;;3.90;75.80;;;;;;4979113;28;20090;-88
2021/01/01 09:42:48;;;;;;;3.25;2.47;;;3.90;76.30;;;;;;4978779;28;20023;-89
2021/01/01 09:45:15;;;;;;;4.82;2.80;;;3.90;76.50;;;;;;4978703;28;20026;-77
2021/01/01 09:47:41;;;;;;;5.80;3.05;;;3.80;76.70;;;;;;4978022;28;20027;-80
2021/01/01 09:50:07;;;;;;;3.85;2.60;;;3.80;76.70;;;;;;4977651;28;20094;-88
2021/01/01 09:52:34;;;;;;;3.70;2.65;;;3.80;77.00;;;;;;4977828;28;20034;-76
2021/01/01 09:54:59;;;;;;;5.20;3.03;;;3.90;77.20;;;;;;4977348;28;20224;-79
2021/01/01 09:57:25;;;;;;;3.58;2.47;;;3.90;77.10;;;;;;4960498;28;20126;-85
2021/01/01 09:59:50;;;;;;;3.40;2.28;;;3.90;77.10;;;;;;4977130;28;20029;-76
2021/01/01 10:02:16;;;;;;;3.70;2.33;;;4.00;77.00;;;;;;4977082;28;20129;-77
2021/01/01 10:04:42;;;;;;;4.47;2.83;;;4.00;76.90;;;;;;4977128;28;20049;-76
2021/01/01 10:07:07;;;;;;;4.18;2.78;;;4.00;76.90;;;;;;4976729;28;20053;-77
2021/01/01 10:09:33;;;;;;;4.60;2.95;;;4.10;77.00;;;;;;4976957;28;20046;-76
2021/01/01 10:12:03;;;;;;;4.25;2.80;;;4.10;76.90;;;;;;4976916;28;20038;-76
2021/01/01 10:14:29;;;;;;;3.08;2.47;;;4.10;76.80;;;;;;4976877;28;20078;-77
2021/01/01 10:16:54;;;;;;;3.60;2.60;;;4.10;76.80;;;;;;4976697;28;20031;-77
2021/01/01 10:19:20;;;;;;;3.20;2.50;;;4.10;76.80;;;;;;4976670;28;20113;-76
2021/01/01 10:21:46;;;;;;;3.15;2.20;;;4.10;76.80;;;;;;4975484;28;20025;-79
2021/01/01 10:24:11;;;;;;;4.53;3.13;;;4.10;76.50;;;;;;4976815;28;20061;-77
2021/01/01 10:26:37;;;;;;;3.30;2.78;;;4.10;76.60;;;;;;4976628;28;20027;-76
2021/01/01 10:29:02;;;;;;;3.92;2.78;;;4.10;76.50;;;;;;4975105;28;20019;-76
2021/01/01 10:31:28;;;;;;;5.57;3.33;;;4.00;76.40;;;;;;4976447;28;20053;-76
2021/01/01 10:33:54;;;;;;;6.10;3.70;;;4.00;76.40;;;;;;4976461;28;20110;-76
2021/01/01 10:36:19;;;;;;;5.57;3.67;;;3.80;76.70;;;;;;4976351;28;20027;-75
2021/01/01 10:38:45;;;;;;;6.22;3.42;;;3.80;76.80;;;;;;4974811;28;20042;-77
2021/01/01 10:41:14;;;;;;;4.75;3.17;;;3.80;76.80;;;;;;4976305;28;20030;-77
2021/01/01 10:43:40;;;;;;;5.50;3.85;;;3.80;76.90;;;;;;4976201;28;20129;-76
2021/01/01 10:46:06;;;;;;;9.57;6.25;;;3.70;77.00;;;;;;4976254;28;20027;-77
2021/01/01 10:48:32;;;;;;;9.38;4.60;;;3.50;77.80;;;;;;4976177;28;20031;-76
2021/01/01 10:50:57;;;;;;;6.20;4.35;;;3.50;78.20;;;;;;4976667;28;20382;-75
2021/01/01 10:53:23;;;;;;;5.10;3.28;;;3.40;78.60;;;;;;4977730;28;20136;-76
2021/01/01 10:55:51;;;;;;;5.28;3.92;;;3.40;78.80;;;;;;4976495;28;20026;-76
2021/01/01 10:58:23;;;;;;;4.75;3.67;;;3.40;78.50;;;;;;4975866;28;20038;-75
2021/01/01 11:00:55;;;;;;;7.53;4.53;;;3.40;78.30;;;;;;4975977;28;20015;-75
2021/01/01 11:03:24;;;;;;;7.05;4.47;;;3.50;78.10;;;;;;4976004;28;20550;-76
2021/01/01 11:05:49;;;;;;;6.75;4.22;;;3.60;77.60;;;;;;4975698;28;20033;-76
2021/01/01 11:08:15;;;;;;;8.50;5.25;;;3.60;76.60;;;;;;4975855;28;20026;-76
2021/01/01 11:10:41;;;;;;;11.10;5.65;;;3.50;76.20;;;;;;4975640;28;20023;-76
2021/01/01 11:13:07;;;;;;;9.55;5.55;;;3.50;75.90;;;;;;4975608;28;20023;-76
2021/01/01 12:19:54;;;;;;;4.65;3.33;;;3.70;71.10;;;;;;4946625;28;20155;-74
2021/01/01 12:24:51;;;;;;;4.25;2.95;;;3.60;72.40;;;;;;4974561;28;20514;-75
2021/01/01 12:27:24;;;;;;;4.35;2.85;;;3.60;72.10;;;;;;4974431;28;20438;-75
2021/01/01 12:29:51;;;;;;;5.15;3.60;;;3.70;71.70;;;;;;4974414;28;20105;-75
2021/01/01 12:32:18;;;;;;;4.10;2.90;;;3.50;71.60;;;;;;4974321;28;20101;-75
2021/01/01 12:34:44;;;;;;;3.50;2.80;;;3.40;72.40;;;;;;4974290;28;20035;-74
2021/01/01 12:37:10;;;;;;;4.18;3.15;;;3.40;72.80;;;;;;4974119;28;20030;-74
2021/01/01 12:39:35;;;;;;;4.32;3.22;;;3.40;73.30;;;;;;4974213;28;20049;-78
2021/01/01 12:42:03;;;;;;;4.88;3.33;;;3.20;74.10;;;;;;4974396;28;20462;-76
2021/01/01 12:44:29;;;;;;;4.82;3.67;;;3.20;74.50;;;;;;4974304;28;20022;-77
2021/01/01 12:46:55;;;;;;;5.63;3.75;;;3.30;74.80;;;;;;4974266;28;20023;-78
2021/01/01 12:49:21;;;;;;;7.07;4.43;;;3.30;74.70;;;;;;4973988;28;20026;-76
2021/01/01 12:51:46;;;;;;;5.70;3.80;;;3.30;74.60;;;;;;4973730;28;20395;-78
2021/01/01 12:54:12;;;;;;;5.35;3.85;;;3.40;74.60;;;;;;4973995;28;20094;-77
2021/01/01 12:56:38;;;;;;;6.78;4.07;;;3.30;74.20;;;;;;4974338;28;20027;-76
2021/01/01 12:59:03;;;;;;;4.80;3.17;;;3.10;74.40;;;;;;4974230;28;20031;-78
2021/01/01 13:01:33;;;;;;;5.75;3.95;;;3.10;74.80;;;;;;4974177;28;20057;-75
2021/01/01 13:03:59;;;;;;;5.72;3.90;;;3.00;75.10;;;;;;4974351;28;20058;-78
2021/01/01 13:06:26;;;;;;;6.68;3.80;;;3.00;75.40;;;;;;4975080;28;20074;-75
2021/01/01 13:08:53;;;;;;;5.18;4.00;;;3.00;75.40;;;;;;4956858;28;20042;-76
2021/01/01 13:11:19;;;;;;;7.10;3.58;;;2.90;75.60;;;;;;4973969;28;20033;-77
2021/01/01 13:13:44;;;;;;;7.00;3.83;;;2.90;75.90;;;;;;4973970;28;20098;-75
2021/01/01 13:16:10;;;;;;;6.22;3.60;;;3.00;75.90;;;;;;4974007;28;20121;-74
2021/01/01 13:18:36;;;;;;;4.18;3.25;;;3.00;75.50;;;;;;4973841;28;20034;-75
2021/01/01 13:21:06;;;;;;;10.75;3.83;;;3.10;75.30;;;;;;4956568;28;20483;-77
2021/01/01 13:23:39;;;;;;;5.18;3.80;;;3.20;75.00;;;;;;4973982;28;20487;-76
2021/01/01 13:26:05;;;;;;;4.57;3.30;;;3.20;74.80;;;;;;4973897;28;20031;-75
2021/01/01 13:28:30;;;;;;;6.05;3.80;;;3.20;74.60;;;;;;4973835;28;20026;-76
2021/01/01 13:30:56;;;;;;;5.57;3.60;;;3.30;74.60;;;;;;4973938;28;20027;-75
2021/01/01 13:33:21;;;;;;;4.95;3.40;;;3.30;74.50;;;;;;4973781;28;20023;-76
2021/01/01 13:35:51;;;;;;;5.60;3.45;;;3.40;74.30;;;;;;4973776;28;20030;-77
2021/01/01 13:38:18;;;;;;;5.47;3.22;;;3.40;74.20;;;;;;4973638;28;20042;-77
2021/01/01 13:40:43;;;;;;;5.25;3.42;;;3.40;74.10;;;;;;4973720;28;20027;-77
2021/01/01 13:43:09;;;;;;;3.97;3.10;;;3.50;74.10;;;;;;4973720;28;20487;-75
2021/01/01 13:45:34;;;;;;;4.13;3.03;;;3.50;74.10;;;;;;4973725;28;20492;-76
2021/01/01 13:48:00;;;;;;;5.68;3.20;;;3.50;73.80;;;;;;4973690;28;20419;-74
2021/01/01 13:50:26;;;;;;;4.70;3.13;;;3.50;73.10;;;;;;4973911;28;20391;-76
2021/01/01 13:52:51;;;;;;;6.45;3.35;;;3.50;73.00;;;;;;4973637;28;20109;-75
2021/01/01 13:55:17;;;;;;;7.20;3.97;;;3.50;73.10;;;;;;4973618;28;20030;-75
2021/01/01 13:57:42;;;;;;;5.30;3.45;;;3.50;73.10;;;;;;4973566;28;20027;-75